sensor_id;sensor_type;location;lat;lon;timestamp;pressure;altitude;pressure_sealevel;temperature;humidity
36354;BME280;22383;51.114;13.666;2023-05-08T00:02:04;67798.56;;;5.49;100.00
36354;BME280;22383;51.114;13.666;2023-05-08T00:04:33;67776.34;;;5.27;100.00
36354;BME280;22383;51.114;13.666;2023-05-08T00:07:08;67778.81;;;5.32;100.00
36354;BME280;22383;51.114;13.666;2023-05-08T00:09:36;67780.31;;;5.30;100.00
36354;BME280;22383;51.114;13.666;2023-05-08T00:12:04;67777.91;;;5.33;100.00
36354;BME280;22383;51.114;13.666;2023-05-08T00:14:43;67765.47;;;5.22;100.00
36354;BME280;22383;51.114;13.666;2023-05-08T00:17:10;67748.34;;;5.04;100.00
36354;BME280;22383;51.114;13.666;2023-05-08T00:19:45;67756.59;;;5.09;100.00
36354;BME280;22383;51.114;13.666;2023-05-08T00:22:15;67760.19;;;5.15;100.00
36354;BME280;22383;51.114;13.666;2023-05-08T00:24:46;67768.47;;;5.20;100.00
36354;BME280;22383;51.114;13.666;2023-05-08T00:27:13;67768.66;;;5.22;100.00
36354;BME280;22383;51.114;13.666;2023-05-08T00:29:47;67758.13;;;5.15;100.00
36354;BME280;22383;51.114;13.666;2023-05-08T00:32:23;67766.19;;;5.18;100.00
36354;BME280;22383;51.114;13.666;2023-05-08T00:34:52;67752.47;;;5.10;100.00
36354;BME280;22383;51.114;13.666;2023-05-08T00:37:27;67761.50;;;5.18;100.00
36354;BME280;22383;51.114;13.666;2023-05-08T00:39:55;67756.03;;;5.08;100.00
36354;BME280;22383;51.114;13.666;2023-05-08T00:42:33;67752.84;;;5.08;100.00
36354;BME280;22383;51.114;13.666;2023-05-08T00:45:03;67760.56;;;5.13;100.00
36354;BME280;22383;51.114;13.666;2023-05-08T00:47:37;67766.03;;;5.22;100.00
36354;BME280;22383;51.114;13.666;2023-05-08T00:50:09;67770.34;;;5.24;100.00
36354;BME280;22383;51.114;13.666;2023-05-08T00:52:41;67784.25;;;5.34;100.00
36354;BME280;22383;51.114;13.666;2023-05-08T00:55:11;67781.63;;;5.34;100.00
36354;BME280;22383;51.114;13.666;2023-05-08T00:57:39;67785.41;;;5.35;100.00
36354;BME280;22383;51.114;13.666;2023-05-08T01:00:08;67780.88;;;5.31;100.00
36354;BME280;22383;51.114;13.666;2023-05-08T01:02:37;67798.94;;;5.47;100.00
36354;BME280;22383;51.114;13.666;2023-05-08T01:05:07;67799.13;;;5.50;100.00
36354;BME280;22383;51.114;13.666;2023-05-08T01:07:37;67804.97;;;5.51;100.00
36354;BME280;22383;51.114;13.666;2023-05-08T01:10:06;67783.88;;;5.36;100.00
36354;BME280;22383;51.114;13.666;2023-05-08T01:15:46;67790.47;;;5.40;100.00
36354;BME280;22383;51.114;13.666;2023-05-08T01:18:31;67790.47;;;5.40;100.00
36354;BME280;22383;51.114;13.666;2023-05-08T01:21:16;67777.13;;;5.30;100.00
36354;BME280;22383;51.114;13.666;2023-05-08T01:30:03;67776.00;;;5.29;100.00
36354;BME280;22383;51.114;13.666;2023-05-08T01:32:40;67784.81;;;5.35;100.00
36354;BME280;22383;51.114;13.666;2023-05-08T01:38:01;67783.34;;;5.36;100.00
36354;BME280;22383;51.114;13.666;2023-05-08T01:41:07;67782.78;;;5.35;100.00
36354;BME280;22383;51.114;13.666;2023-05-08T01:43:52;67777.13;;;5.30;100.00
36354;BME280;22383;51.114;13.666;2023-05-08T01:46:24;67782.78;;;5.35;100.00
36354;BME280;22383;51.114;13.666;2023-05-08T01:48:59;67773.72;;;5.27;100.00
36354;BME280;22383;51.114;13.666;2023-05-08T01:51:27;67773.53;;;5.24;100.00
36354;BME280;22383;51.114;13.666;2023-05-08T01:54:04;67767.91;;;5.19;100.00
36354;BME280;22383;51.114;13.666;2023-05-08T01:56:42;67768.66;;;5.22;100.00
36354;BME280;22383;51.114;13.666;2023-05-08T01:59:16;67771.28;;;5.22;100.00
36354;BME280;22383;51.114;13.666;2023-05-08T02:01:54;67773.19;;;5.26;100.00
36354;BME280;22383;51.114;13.666;2023-05-08T02:04:27;67770.72;;;5.22;100.00
36354;BME280;22383;51.114;13.666;2023-05-08T02:06:56;67770.34;;;5.24;100.00
36354;BME280;22383;51.114;13.666;2023-05-08T02:09:30;67764.53;;;5.23;100.00
36354;BME280;22383;51.114;13.666;2023-05-08T02:12:01;67766.75;;;5.18;100.00
36354;BME280;22383;51.114;13.666;2023-05-08T02:14:30;67762.84;;;5.22;100.00
36354;BME280;22383;51.114;13.666;2023-05-08T02:17:00;67769.00;;;5.20;100.00
36354;BME280;22383;51.114;13.666;2023-05-08T02:19:34;67771.47;;;5.25;100.00
36354;BME280;22383;51.114;13.666;2023-05-08T02:22:02;67770.72;;;5.22;100.00
36354;BME280;22383;51.114;13.666;2023-05-08T02:24:33;67762.44;;;5.17;100.00
36354;BME280;22383;51.114;13.666;2023-05-08T02:27:02;67758.50;;;5.13;100.00
36354;BME280;22383;51.114;13.666;2023-05-08T02:29:38;67756.59;;;5.09;100.00
36354;BME280;22383;51.114;13.666;2023-05-08T02:32:07;67744.75;;;4.98;100.00
36354;BME280;22383;51.114;13.666;2023-05-08T02:34:36;67747.19;;;5.03;100.00
36354;BME280;22383;51.114;13.666;2023-05-08T02:37:20;67740.63;;;4.99;100.00
36354;BME280;22383;51.114;13.666;2023-05-08T02:39:48;67742.50;;;4.96;100.00
36354;BME280;22383;51.114;13.666;2023-05-08T02:42:20;67741.00;;;4.97;100.00
36354;BME280;22383;51.114;13.666;2023-05-08T02:44:49;67730.47;;;4.90;100.00
36354;BME280;22383;51.114;13.666;2023-05-08T02:47:28;67730.63;;;4.85;100.00
36354;BME280;22383;51.114;13.666;2023-05-08T02:50:15;67715.97;;;4.72;100.00
36354;BME280;22383;51.114;13.666;2023-05-08T02:52:51;67700.56;;;4.63;100.00
36354;BME280;22383;51.114;13.666;2023-05-08T02:55:43;67703.75;;;4.63;100.00
36354;BME280;22383;51.114;13.666;2023-05-08T02:58:27;67700.75;;;4.58;100.00
36354;BME280;22383;51.114;13.666;2023-05-08T03:01:20;67698.28;;;4.53;100.00
36354;BME280;22383;51.114;13.666;2023-05-08T03:04:09;67696.22;;;4.54;100.00
36354;BME280;22383;51.114;13.666;2023-05-08T03:06:44;67688.31;;;4.47;100.00
36354;BME280;22383;51.114;13.666;2023-05-08T03:09:36;67681.41;;;4.45;100.00
36354;BME280;22383;51.114;13.666;2023-05-08T03:12:10;67677.78;;;4.40;100.00
36354;BME280;22383;51.114;13.666;2023-05-08T03:14:54;67674.78;;;4.34;100.00
36354;BME280;22383;51.114;13.666;2023-05-08T03:17:24;67663.34;;;4.29;100.00
36354;BME280;22383;51.114;13.666;2023-05-08T03:19:56;67672.34;;;4.30;100.00
36354;BME280;22383;51.114;13.666;2023-05-08T03:22:34;67671.41;;;4.31;100.00
36354;BME280;22383;51.114;13.666;2023-05-08T03:25:04;67670.13;;;4.35;100.00
36354;BME280;22383;51.114;13.666;2023-05-08T03:27:34;67670.28;;;4.30;100.00
36354;BME280;22383;51.114;13.666;2023-05-08T03:30:07;67682.88;;;4.44;100.00
36354;BME280;22383;51.114;13.666;2023-05-08T03:32:41;67684.38;;;4.43;100.00
36354;BME280;22383;51.114;13.666;2023-05-08T03:35:14;67683.06;;;4.47;100.00
36354;BME280;22383;51.114;13.666;2023-05-08T03:37:42;67695.66;;;4.53;100.00
36354;BME280;22383;51.114;13.666;2023-05-08T03:40:12;67685.13;;;4.46;100.00
36354;BME280;22383;51.114;13.666;2023-05-08T03:42:49;67690.59;;;4.49;100.00
36354;BME280;22383;51.114;13.666;2023-05-08T03:45:18;67690.78;;;4.51;100.00
36354;BME280;22383;51.114;13.666;2023-05-08T03:47:50;67685.91;;;4.49;100.00
36354;BME280;22383;51.114;13.666;2023-05-08T03:50:27;67688.88;;;4.47;100.00
36354;BME280;22383;51.114;13.666;2023-05-08T03:52:57;67694.72;;;4.55;100.00
36354;BME280;22383;51.114;13.666;2023-05-08T03:55:25;67698.13;;;4.58;100.00
36354;BME280;22383;51.114;13.666;2023-05-08T04:01:04;67701.50;;;4.61;100.00
36354;BME280;22383;51.114;13.666;2023-05-08T04:03:46;67697.19;;;4.60;100.00
36354;BME280;22383;51.114;13.666;2023-05-08T04:06:26;67698.31;;;4.61;100.00
36354;BME280;22383;51.114;13.666;2023-05-08T04:09:26;67703.00;;;4.60;100.00
36354;BME280;22383;51.114;13.666;2023-05-08T04:12:08;67701.28;;;4.59;100.00
36354;BME280;22383;51.114;13.666;2023-05-08T04:14:41;67695.50;;;4.58;100.00
36354;BME280;22383;51.114;13.666;2023-05-08T04:17:13;67706.00;;;4.65;100.00
36354;BME280;22383;51.114;13.666;2023-05-08T04:19:45;67697.75;;;4.60;100.00
36354;BME280;22383;51.114;13.666;2023-05-08T04:22:17;67700.38;;;4.60;100.00
36354;BME280;22383;51.114;13.666;2023-05-08T04:24:48;67701.28;;;4.59;100.00
36354;BME280;22383;51.114;13.666;2023-05-08T04:27:17;67697.91;;;4.55;100.00
36354;BME280;22383;51.114;13.666;2023-05-08T04:29:48;67695.28;;;4.55;100.00
36354;BME280;22383;51.114;13.666;2023-05-08T04:32:16;67709.41;;;4.68;100.00
36354;BME280;22383;51.114;13.666;2023-05-08T04:34:44;67719.41;;;4.82;100.00
36354;BME280;22383;51.114;13.666;2023-05-08T04:37:23;67733.88;;;4.93;100.00
36354;BME280;22383;51.114;13.666;2023-05-08T04:39:55;67748.13;;;5.01;100.00
36354;BME280;22383;51.114;13.666;2023-05-08T04:42:30;67745.88;;;4.99;100.00
36354;BME280;22383;51.114;13.666;2023-05-08T04:45:03;67745.69;;;4.97;100.00
36354;BME280;22383;51.114;13.666;2023-05-08T04:47:40;67741.75;;;5.00;100.00
36354;BME280;22383;51.114;13.666;2023-05-08T04:50:12;67745.88;;;4.99;100.00
36354;BME280;22383;51.114;13.666;2023-05-08T04:52:40;67772.03;;;5.25;100.00
36354;BME280;22383;51.114;13.666;2023-05-08T04:55:08;67788.03;;;5.35;100.00
36354;BME280;22383;51.114;13.666;2023-05-08T04:57:39;67844.13;;;5.88;100.00
36354;BME280;22383;51.114;13.666;2023-05-08T05:00:14;67940.59;;;6.81;100.00
36354;BME280;22383;51.114;13.666;2023-05-08T05:02:46;68061.22;;;7.86;100.00
36354;BME280;22383;51.114;13.666;2023-05-08T05:05:16;68185.94;;;9.01;100.00
36354;BME280;22383;51.114;13.666;2023-05-08T05:07:44;68331.75;;;10.36;100.00
36354;BME280;22383;51.114;13.666;2023-05-08T05:10:12;68423.41;;;11.24;100.00
36354;BME280;22383;51.114;13.666;2023-05-08T05:12:39;68455.94;;;11.48;100.00
36354;BME280;22383;51.114;13.666;2023-05-08T05:15:07;68452.53;;;11.45;100.00
36354;BME280;22383;51.114;13.666;2023-05-08T05:17:39;68510.81;;;11.96;100.00
36354;BME280;22383;51.114;13.666;2023-05-08T05:20:19;68496.22;;;11.85;100.00
36354;BME280;22383;51.114;13.666;2023-05-08T05:22:51;68419.81;;;11.11;100.00
36354;BME280;22383;51.114;13.666;2023-05-08T05:25:21;68336.66;;;10.38;100.00
36354;BME280;22383;51.114;13.666;2023-05-08T05:27:51;68305.09;;;10.05;100.00
36354;BME280;22383;51.114;13.666;2023-05-08T05:30:27;68277.91;;;9.87;100.00
36354;BME280;22383;51.114;13.666;2023-05-08T05:32:55;68322.47;;;10.25;100.00
36354;BME280;22383;51.114;13.666;2023-05-08T05:35:23;68361.03;;;10.60;100.00
36354;BME280;22383;51.114;13.666;2023-05-08T05:37:52;68370.88;;;10.71;100.00
36354;BME280;22383;51.114;13.666;2023-05-08T05:40:20;68456.88;;;11.47;100.00
36354;BME280;22383;51.114;13.666;2023-05-08T05:42:50;68498.31;;;11.84;100.00
36354;BME280;22383;51.114;13.666;2023-05-08T05:45:22;68528.03;;;12.14;100.00
36354;BME280;22383;51.114;13.666;2023-05-08T05:47:49;68485.06;;;11.70;100.00
36354;BME280;22383;51.114;13.666;2023-05-08T05:50:27;68541.25;;;12.28;98.98
36354;BME280;22383;51.114;13.666;2023-05-08T05:52:58;68543.91;;;12.28;97.96
36354;BME280;22383;51.114;13.666;2023-05-08T05:55:26;68595.94;;;12.73;95.73
36354;BME280;22383;51.114;13.666;2023-05-08T05:57:54;68572.13;;;12.51;93.22
36354;BME280;22383;51.114;13.666;2023-05-08T06:00:22;68588.00;;;12.65;92.14
36354;BME280;22383;51.114;13.666;2023-05-08T06:02:53;68618.50;;;12.98;89.76
36354;BME280;22383;51.114;13.666;2023-05-08T06:05:24;68650.13;;;13.24;87.58
36354;BME280;22383;51.114;13.666;2023-05-08T06:07:53;68632.50;;;13.08;86.67
36354;BME280;22383;51.114;13.666;2023-05-08T06:10:23;68551.84;;;12.35;88.32
36354;BME280;22383;51.114;13.666;2023-05-08T06:12:50;68512.13;;;11.99;89.11
36354;BME280;22383;51.114;13.666;2023-05-08T06:15:18;68441.75;;;11.35;93.79
36354;BME280;22383;51.114;13.666;2023-05-08T06:17:49;68455.94;;;11.48;98.03
36354;BME280;22383;51.114;13.666;2023-05-08T06:20:17;68423.03;;;11.19;98.92
36354;BME280;22383;51.114;13.666;2023-05-08T06:22:44;68445.34;;;11.34;98.08
36354;BME280;22383;51.114;13.666;2023-05-08T06:25:12;68456.31;;;11.46;97.85
36354;BME280;22383;51.114;13.666;2023-05-08T06:27:39;68491.13;;;11.80;97.35
36354;BME280;22383;51.114;13.666;2023-05-08T06:30:09;68550.75;;;12.34;95.32
36354;BME280;22383;51.114;13.666;2023-05-08T06:32:36;68606.19;;;12.82;90.90
36354;BME280;22383;51.114;13.666;2023-05-08T06:35:04;68615.25;;;12.90;88.48
36354;BME280;22383;51.114;13.666;2023-05-08T06:37:32;68653.53;;;13.27;88.32
36354;BME280;22383;51.114;13.666;2023-05-08T06:40:00;68612.59;;;12.90;85.80
36354;BME280;22383;51.114;13.666;2023-05-08T06:42:38;68600.88;;;12.82;86.97
36354;BME280;22383;51.114;13.666;2023-05-08T06:45:07;68548.28;;;12.29;88.14
36354;BME280;22383;51.114;13.666;2023-05-08T06:47:37;68518.38;;;12.05;90.61
36354;BME280;22383;51.114;13.666;2023-05-08T06:50:08;68575.69;;;12.57;90.88
36354;BME280;22383;51.114;13.666;2023-05-08T06:52:37;68643.88;;;13.18;87.72
36354;BME280;22383;51.114;13.666;2023-05-08T06:55:05;68672.09;;;13.41;81.48
36354;BME280;22383;51.114;13.666;2023-05-08T06:57:32;68710.91;;;13.79;80.95
36354;BME280;22383;51.114;13.666;2023-05-08T06:59:59;68702.41;;;13.71;79.82
36354;BME280;22383;51.114;13.666;2023-05-08T07:02:26;68712.25;;;13.83;81.56
36354;BME280;22383;51.114;13.666;2023-05-08T07:04:57;68733.84;;;14.02;81.76
36354;BME280;22383;51.114;13.666;2023-05-08T07:07:24;68615.06;;;12.95;82.37
36354;BME280;22383;51.114;13.666;2023-05-08T07:09:55;68564.53;;;12.49;88.03
36354;BME280;22383;51.114;13.666;2023-05-08T07:12:22;68485.44;;;11.75;89.09
36354;BME280;22383;51.114;13.666;2023-05-08T07:14:49;68478.44;;;11.66;88.96
36354;BME280;22383;51.114;13.666;2023-05-08T07:17:17;68539.00;;;12.19;93.26
36354;BME280;22383;51.114;13.666;2023-05-08T07:19:49;68592.19;;;12.72;86.77
36354;BME280;22383;51.114;13.666;2023-05-08T07:22:17;68642.72;;;13.17;86.04
36354;BME280;22383;51.114;13.666;2023-05-08T07:24:45;68687.63;;;13.58;81.20
36354;BME280;22383;51.114;13.666;2023-05-08T07:27:12;68696.53;;;13.64;82.97
36354;BME280;22383;51.114;13.666;2023-05-08T07:29:40;68728.94;;;13.93;82.60
36354;BME280;22383;51.114;13.666;2023-05-08T07:32:14;68637.59;;;13.13;83.76
36354;BME280;22383;51.114;13.666;2023-05-08T07:34:43;68634.22;;;13.10;81.80
36354;BME280;22383;51.114;13.666;2023-05-08T07:37:19;68620.19;;;12.99;79.31
36354;BME280;22383;51.114;13.666;2023-05-08T07:39:46;68616.41;;;12.91;80.91
36354;BME280;22383;51.114;13.666;2023-05-08T07:42:14;68629.09;;;13.05;81.21
36354;BME280;22383;51.114;13.666;2023-05-08T07:44:41;68631.56;;;13.02;79.65
36354;BME280;22383;51.114;13.666;2023-05-08T07:47:21;68638.38;;;13.09;79.88
36354;BME280;22383;51.114;13.666;2023-05-08T07:49:52;68627.94;;;13.04;80.05
36354;BME280;22383;51.114;13.666;2023-05-08T07:52:22;68621.91;;;12.94;78.82
36354;BME280;22383;51.114;13.666;2023-05-08T07:54:49;68615.25;;;12.90;78.00
36354;BME280;22383;51.114;13.666;2023-05-08T07:57:20;68612.59;;;12.90;81.63
36354;BME280;22383;51.114;13.666;2023-05-08T07:59:51;68587.63;;;12.67;81.88
36354;BME280;22383;51.114;13.666;2023-05-08T08:02:21;68622.84;;;12.99;79.77
36354;BME280;22383;51.114;13.666;2023-05-08T08:04:49;68592.69;;;12.94;80.39
36354;BME280;22383;51.114;13.666;2023-05-08T08:07:16;68662.06;;;13.35;80.70
36354;BME280;22383;51.114;13.666;2023-05-08T08:09:58;68667.53;;;13.37;79.80
36354;BME280;22383;51.114;13.666;2023-05-08T08:12:25;68684.97;;;13.58;81.30
36354;BME280;22383;51.114;13.666;2023-05-08T08:14:53;68738.19;;;14.04;73.19
36354;BME280;22383;51.114;13.666;2023-05-08T08:17:20;68740.47;;;14.06;72.43
36354;BME280;22383;51.114;13.666;2023-05-08T08:19:48;68768.34;;;14.31;70.43
36354;BME280;22383;51.114;13.666;2023-05-08T08:22:15;68754.13;;;14.18;70.28
36354;BME280;22383;51.114;13.666;2023-05-08T08:24:44;68757.91;;;14.19;70.90
36354;BME280;22383;51.114;13.666;2023-05-08T08:27:11;68725.50;;;13.90;68.95
36354;BME280;22383;51.114;13.666;2023-05-08T08:29:42;68686.31;;;13.54;71.56
36354;BME280;22383;51.114;13.666;2023-05-08T08:32:11;68681.38;;;13.52;72.20
36354;BME280;22383;51.114;13.666;2023-05-08T08:34:38;68693.31;;;13.63;72.00
36354;BME280;22383;51.114;13.666;2023-05-08T08:37:06;68710.00;;;13.73;69.71
36354;BME280;22383;51.114;13.666;2023-05-08T08:39:35;68718.69;;;13.84;74.16
36354;BME280;22383;51.114;13.666;2023-05-08T08:42:02;68748.66;;;14.08;72.18
36354;BME280;22383;51.114;13.666;2023-05-08T08:44:29;68815.75;;;14.69;72.80
36354;BME280;22383;51.114;13.666;2023-05-08T08:47:00;68850.25;;;15.05;70.38
36354;BME280;22383;51.114;13.666;2023-05-08T08:49:47;68791.81;;;14.54;68.39
36354;BME280;22383;51.114;13.666;2023-05-08T08:52:47;68762.84;;;14.21;68.33
36354;BME280;22383;51.114;13.666;2023-05-08T08:55:21;68818.59;;;14.71;65.35
36354;BME280;22383;51.114;13.666;2023-05-08T09:00:30;68925.38;;;15.73;64.94
36354;BME280;22383;51.114;13.666;2023-05-08T09:05:59;68907.31;;;15.59;64.91
36354;BME280;22383;51.114;13.666;2023-05-08T09:08:29;68969.19;;;16.12;65.66
36354;BME280;22383;51.114;13.666;2023-05-08T09:10:57;68984.44;;;16.48;65.41
36354;BME280;22383;51.114;13.666;2023-05-08T09:13:24;68994.28;;;16.28;61.02
36354;BME280;22383;51.114;13.666;2023-05-08T09:15:56;69001.31;;;16.36;61.81
36354;BME280;22383;51.114;13.666;2023-05-08T09:18:27;69000.50;;;16.40;61.07
36354;BME280;22383;51.114;13.666;2023-05-08T09:20:58;68981.56;;;16.21;62.49
36354;BME280;22383;51.114;13.666;2023-05-08T09:23:27;68987.44;;;16.29;59.66
36354;BME280;22383;51.114;13.666;2023-05-08T09:26:00;69026.13;;;16.63;60.12
36354;BME280;22383;51.114;13.666;2023-05-08T09:28:27;69058.63;;;16.93;59.96
36354;BME280;22383;51.114;13.666;2023-05-08T09:30:56;69037.72;;;16.76;59.68
36354;BME280;22383;51.114;13.666;2023-05-08T09:33:28;69054.66;;;16.89;57.71
36354;BME280;22383;51.114;13.666;2023-05-08T09:35:57;69105.75;;;17.33;59.83
36354;BME280;22383;51.114;13.666;2023-05-08T09:38:37;69065.06;;;17.01;58.55
36354;BME280;22383;51.114;13.666;2023-05-08T09:41:13;69036.97;;;16.73;57.38
36354;BME280;22383;51.114;13.666;2023-05-08T09:43:43;69025.19;;;16.65;60.08
36354;BME280;22383;51.114;13.666;2023-05-08T09:46:26;69095.84;;;17.29;58.21
36354;BME280;22383;51.114;13.666;2023-05-08T09:48:58;69159.88;;;17.82;61.75
36354;BME280;22383;51.114;13.666;2023-05-08T09:51:34;69156.25;;;17.83;57.36
36354;BME280;22383;51.114;13.666;2023-05-08T09:54:16;69137.84;;;17.64;56.47
36354;BME280;22383;51.114;13.666;2023-05-08T09:56:44;69140.66;;;17.67;54.89
36354;BME280;22383;51.114;13.666;2023-05-08T09:59:27;69118.06;;;17.49;54.09
36354;BME280;22383;51.114;13.666;2023-05-08T10:02:11;69147.53;;;17.73;56.57
36354;BME280;22383;51.114;13.666;2023-05-08T10:04:42;69203.00;;;18.25;56.03
36354;BME280;22383;51.114;13.666;2023-05-08T10:07:09;69125.13;;;17.50;55.63
36354;BME280;22383;51.114;13.666;2023-05-08T10:09:57;69102.91;;;17.30;57.73
36354;BME280;22383;51.114;13.666;2023-05-08T10:12:31;69170.16;;;17.91;56.73
36354;BME280;22383;51.114;13.666;2023-05-08T10:15:03;69241.59;;;18.58;54.52
36354;BME280;22383;51.114;13.666;2023-05-08T10:17:41;69242.91;;;18.61;55.29
36354;BME280;22383;51.114;13.666;2023-05-08T10:20:16;69249.03;;;18.64;54.00
36354;BME280;22383;51.114;13.666;2023-05-08T10:22:48;69245.03;;;18.61;54.59
36354;BME280;22383;51.114;13.666;2023-05-08T10:25:22;69258.72;;;18.73;54.65
36354;BME280;22383;51.114;13.666;2023-05-08T10:28:05;69300.22;;;19.08;56.21
36354;BME280;22383;51.114;13.666;2023-05-08T10:30:42;69313.69;;;19.25;53.75
36354;BME280;22383;51.114;13.666;2023-05-08T10:33:19;69324.34;;;19.32;52.79
36354;BME280;22383;51.114;13.666;2023-05-08T10:35:47;69354.75;;;19.62;53.58
36354;BME280;22383;51.114;13.666;2023-05-08T10:38:15;69425.97;;;20.24;51.15
36354;BME280;22383;51.114;13.666;2023-05-08T10:40:43;69433.75;;;20.52;49.22
36354;BME280;22383;51.114;13.666;2023-05-08T10:43:18;69419.09;;;20.17;51.82
36354;BME280;22383;51.114;13.666;2023-05-08T10:45:48;69440.81;;;20.37;51.04
36354;BME280;22383;51.114;13.666;2023-05-08T10:51:52;69549.91;;;21.35;49.15
36354;BME280;22383;51.114;13.666;2023-05-08T10:57:19;69371.31;;;19.77;48.80
36354;BME280;22383;51.114;13.666;2023-05-08T10:59:49;69313.69;;;19.25;46.06
36354;BME280;22383;51.114;13.666;2023-05-08T11:02:30;69307.06;;;19.14;48.56
36354;BME280;22383;51.114;13.666;2023-05-08T11:05:16;69332.00;;;19.34;47.03
36354;BME280;22383;51.114;13.666;2023-05-08T11:07:59;69288.41;;;19.00;48.62
36354;BME280;22383;51.114;13.666;2023-05-08T11:10:30;69276.81;;;18.87;49.08
36354;BME280;22383;51.114;13.666;2023-05-08T11:13:07;69354.75;;;19.62;51.15
36354;BME280;22383;51.114;13.666;2023-05-08T11:15:39;69273.56;;;18.86;47.92
36354;BME280;22383;51.114;13.666;2023-05-08T11:18:10;69251.53;;;18.62;49.23
36354;BME280;22383;51.114;13.666;2023-05-08T11:21:02;69328.34;;;19.36;49.99
36354;BME280;22383;51.114;13.666;2023-05-08T11:23:37;69401.00;;;20.03;54.37
36354;BME280;22383;51.114;13.666;2023-05-08T11:26:12;69485.97;;;20.77;50.84
36354;BME280;22383;51.114;13.666;2023-05-08T11:31:21;69486.53;;;20.78;47.31
36354;BME280;22383;51.114;13.666;2023-05-08T11:33:51;69395.69;;;19.96;50.12
36354;BME280;22383;51.114;13.666;2023-05-08T11:36:19;69266.53;;;19.02;48.67
36354;BME280;22383;51.114;13.666;2023-05-08T11:39:05;69245.59;;;18.61;59.50
36354;BME280;22383;51.114;13.666;2023-05-08T11:41:37;69245.03;;;18.61;55.44
36354;BME280;22383;51.114;13.666;2023-05-08T11:44:24;69273.97;;;18.84;50.70
36354;BME280;22383;51.114;13.666;2023-05-08T11:47:02;69264.09;;;18.73;48.91
36354;BME280;22383;51.114;13.666;2023-05-08T11:49:31;69284.06;;;18.91;56.14
36354;BME280;22383;51.114;13.666;2023-05-08T11:51:58;69285.97;;;18.95;54.48
36354;BME280;22383;51.114;13.666;2023-05-08T11:54:32;69259.69;;;18.71;60.16
36354;BME280;22383;51.114;13.666;2023-05-08T11:57:02;69218.63;;;18.35;54.18
36354;BME280;22383;51.114;13.666;2023-05-08T11:59:34;69251.69;;;18.64;49.52
36354;BME280;22383;51.114;13.666;2023-05-08T12:02:02;69266.53;;;18.78;52.87
36354;BME280;22383;51.114;13.666;2023-05-08T12:04:47;69288.97;;;19.00;59.02
36354;BME280;22383;51.114;13.666;2023-05-08T12:07:16;69351.97;;;19.52;55.38
36354;BME280;22383;51.114;13.666;2023-05-08T12:09:48;69435.09;;;20.32;49.38
36354;BME280;22383;51.114;13.666;2023-05-08T12:12:17;69441.94;;;20.38;48.56
36354;BME280;22383;51.114;13.666;2023-05-08T12:15:11;69447.47;;;20.40;53.36
36354;BME280;22383;51.114;13.666;2023-05-08T12:17:39;69337.47;;;19.44;57.51
36354;BME280;22383;51.114;13.666;2023-05-08T12:20:17;69321.91;;;19.27;57.52
36354;BME280;22383;51.114;13.666;2023-05-08T12:22:50;69280.97;;;18.93;58.89
36354;BME280;22383;51.114;13.666;2023-05-08T12:25:21;69255.84;;;18.70;61.12
36354;BME280;22383;51.114;13.666;2023-05-08T12:27:57;69237.06;;;18.54;61.26
36354;BME280;22383;51.114;13.666;2023-05-08T12:30:26;69223.38;;;18.41;60.67
36354;BME280;22383;51.114;13.666;2023-05-08T12:32:58;69206.09;;;18.23;64.79
36354;BME280;22383;51.114;13.666;2023-05-08T12:35:30;69216.50;;;18.35;66.12
36354;BME280;22383;51.114;13.666;2023-05-08T12:38:01;69207.97;;;18.27;65.24
36354;BME280;22383;51.114;13.666;2023-05-08T12:40:40;69231.34;;;18.48;62.29
36354;BME280;22383;51.114;13.666;2023-05-08T12:43:13;69226.03;;;18.41;61.39
36354;BME280;22383;51.114;13.666;2023-05-08T12:45:46;69213.66;;;18.32;62.80
36354;BME280;22383;51.114;13.666;2023-05-08T12:48:20;69246.97;;;18.58;62.87
36354;BME280;22383;51.114;13.666;2023-05-08T12:50:50;69236.09;;;18.55;63.83
36354;BME280;22383;51.114;13.666;2023-05-08T12:53:20;69226.97;;;18.47;59.55
36354;BME280;22383;51.114;13.666;2023-05-08T12:56:02;69234.78;;;18.51;59.68
36354;BME280;22383;51.114;13.666;2023-05-08T12:58:32;69220.13;;;18.41;62.53
36354;BME280;22383;51.114;13.666;2023-05-08T13:01:05;69228.72;;;18.41;59.60
36354;BME280;22383;51.114;13.666;2023-05-08T13:03:33;69231.50;;;18.51;59.94
36354;BME280;22383;51.114;13.666;2023-05-08T13:06:01;69220.16;;;18.33;62.36
36354;BME280;22383;51.114;13.666;2023-05-08T13:08:37;69266.34;;;18.75;58.86
36354;BME280;22383;51.114;13.666;2023-05-08T13:11:05;69263.13;;;18.75;63.36
36354;BME280;22383;51.114;13.666;2023-05-08T13:13:33;69282.53;;;19.16;59.05
36354;BME280;22383;51.114;13.666;2023-05-08T13:16:05;69303.25;;;19.13;61.00
36354;BME280;22383;51.114;13.666;2023-05-08T13:18:33;69304.59;;;19.10;61.13
36354;BME280;22383;51.114;13.666;2023-05-08T13:21:03;69262.50;;;18.81;58.98
36354;BME280;22383;51.114;13.666;2023-05-08T13:23:30;69269.00;;;18.82;59.40
36354;BME280;22383;51.114;13.666;2023-05-08T13:25:57;69243.09;;;18.64;59.22
36354;BME280;22383;51.114;13.666;2023-05-08T13:28:27;69238.41;;;18.50;60.62
36354;BME280;22383;51.114;13.666;2023-05-08T13:31:00;69226.59;;;18.42;59.04
36354;BME280;22383;51.114;13.666;2023-05-08T13:33:33;69221.47;;;18.37;57.72
36354;BME280;22383;51.114;13.666;2023-05-08T13:36:07;69237.63;;;18.54;60.21
36354;BME280;22383;51.114;13.666;2023-05-08T13:38:39;69241.59;;;18.58;58.92
36354;BME280;22383;51.114;13.666;2023-05-08T13:41:07;69238.00;;;18.52;61.60
36354;BME280;22383;51.114;13.666;2023-05-08T13:43:35;69208.72;;;18.30;62.57
36354;BME280;22383;51.114;13.666;2023-05-08T13:46:06;69206.81;;;18.26;63.03
36354;BME280;22383;51.114;13.666;2023-05-08T13:48:37;69234.19;;;18.51;59.84